No requiere especial atencion con respecto al clima.   -   No hay Alarmas

Informes de METAR cercanos

 

LEXJ - Santander/Parayas, Spain
Distance from station: ESE 6km
Actualización: 21/08/2018 09:30
Despejado
Despejado
 Viento del varies
Viento: varies 2 km/h
Temperatura: 20°C
Rocío: 19°C
Humedad: 94%
Barómetro: 1019 hPa
Resumen: Despejado
Visibility: greater than 10 km
2018/08/21 07:30 LEXJ 210730Z VRB01KT CAVOK 20/19 Q1019
LEBB - Bilbao/Sondica, Spain
Distance from station: ESE 80km
Actualización: 21/08/2018 09:30
Muy nuboso
Muy nuboso
 Viento del SE
Viento: SE 7 km/h
Temperatura: 18°C
Rocío: 16°C
Humedad: 88%
Barómetro: 1020 hPa
Clouds: Muy nuboso
Visibility: 10 km
Cloud details: Muy nuboso 671 m
2018/08/21 07:30 LEBB 210730Z 13004KT 100V160 9999 BKN022 18/16 Q1020 NOSIG
 
LEBL - Barcelona Airpor, Spain
Distance from station: ESE 726km
Actualización: 21/08/2018 09:30
Despejado
Despejado
 Viento del NO
Viento: NO 13 km/h
Temperatura: 25°C
Rocío: 17°C
Humedad: 61%
Barómetro: 1017 hPa
Resumen: Despejado
Visibility: greater than 10 km
2018/08/21 07:30 LEBL 210730Z 32007KT 290V360 CAVOK 25/17 Q1017 NOSIG
LEMD - Madrid/Barajas, Spain
Distance from station: S 325km
Actualización: 21/08/2018 09:30
Despejado
Despejado
 Viento del varies
Viento: varies 4 km/h
Temperatura: 22°C
Rocío: 10°C
Humedad: 47%
Barómetro: 1020 hPa
Resumen: Despejado
Visibility: greater than 10 km
2018/08/21 07:30 LEMD 210730Z VRB02KT CAVOK 22/10 Q1020 NOSIG
 
LPPT - Lisbon/Portela, Portugal
Distance from station: SO 663km
Actualización: 21/08/2018 09:30
Despejado
Despejado
 Viento del ENE
Viento: ENE 6 km/h
Temperatura: 25°C
Rocío: 12°C
Humedad: 44%
Barómetro: 1015 hPa
Resumen: Despejado
Visibility: greater than 10 km
2018/08/21 07:30 LPPT 210730Z 07003KT 360V100 CAVOK 25/12 Q1015
LECO - La Coruna/Alvedr, Spain
Distance from station: O 349km
Actualización: 21/08/2018 09:30
Despejado
Despejado
 Viento del SSO
Viento: SSO 6 km/h
Temperatura: 17°C
Rocío: 15°C
Humedad: 88%
Barómetro: 1017 hPa
Resumen: Despejado
Visibility: greater than 10 km
2018/08/21 07:30 LECO 210730Z 20003KT 130V230 CAVOK 17/15 Q1017 NOSIG
 
LEST - Santiago/Labacol, Spain
Distance from station: O 358km
Actualización: 21/08/2018 09:30
Despejado
Despejado
 Viento del E
Viento: E 6 km/h
Temperatura: 20°C
Rocío: 16°C
Humedad: 78%
Barómetro: 1017 hPa
Resumen: Despejado
Visibility: greater than 10 km
2018/08/21 07:30 LEST 210730Z 09003KT 030V160 CAVOK 20/16 Q1017 NOSIG
EBBR - Brussels International Airport, Belgium
Distance from station: O 1339km
Actualización: 21/08/2018 09:50
Few Clouds
Few Clouds
 Viento del varies
Viento: varies 4 km/h
Temperatura: 21°C
Rocío: 16°C
Humedad: 73%
Barómetro: 1021 hPa
Clouds: Few Clouds
Visibility: 10 km
Cloud details: Few Clouds 640 m
2018/08/21 07:50 EBBR 210750Z VRB02KT 9999 FEW021 21/16 Q1021 NOSIG